createdAt,value
2023-04-09T00:03:11.089Z,101303.22
2023-04-09T00:13:13.143Z,101288.63
2023-04-09T00:23:17.120Z,101290.34
2023-04-09T00:33:20.063Z,101296.38
2023-04-09T00:43:24.045Z,101286.97
2023-04-09T00:53:28.649Z,101273.19
2023-04-09T01:03:30.702Z,101282.59
2023-04-09T01:13:46.172Z,101279.16
2023-04-09T01:24:06.464Z,101284.34
2023-04-09T01:34:09.523Z,101294.59
2023-04-09T01:44:14.254Z,101295.44
2023-04-09T01:54:17.520Z,101301.44
2023-04-09T02:04:44.220Z,101315.19
2023-04-09T02:14:52.348Z,101310.84
2023-04-09T02:24:55.394Z,101306.53
2023-04-09T02:34:57.345Z,101310.00
2023-04-09T02:45:11.074Z,101315.06
2023-04-09T02:55:13.445Z,101310.81
2023-04-09T03:05:15.418Z,101294.47
2023-04-09T03:15:17.388Z,101294.50
2023-04-09T03:25:21.009Z,101303.94
2023-04-09T03:35:23.046Z,101299.53
2023-04-09T03:45:24.930Z,101292.66
2023-04-09T03:55:27.286Z,101278.97
2023-04-09T04:05:29.157Z,101285.81
2023-04-09T04:15:32.023Z,101285.78
2023-04-09T04:25:34.988Z,101292.59
2023-04-09T04:35:36.995Z,101287.34
2023-04-09T04:45:38.942Z,101301.19
2023-04-09T04:55:41.183Z,101319.25
2023-04-09T05:05:43.187Z,101323.63
2023-04-09T05:15:46.146Z,101324.56
2023-04-09T05:25:50.377Z,101322.94
2023-04-09T05:35:52.336Z,101323.91
2023-04-09T05:45:54.277Z,101330.78
2023-04-09T05:55:57.359Z,101328.25
2023-04-09T06:06:01.877Z,101335.97
2023-04-09T06:16:08.639Z,101335.97
2023-04-09T06:26:19.949Z,101343.63
2023-04-09T06:36:23.245Z,101345.34
2023-04-09T06:46:26.487Z,101351.31
2023-04-09T06:56:28.424Z,101347.56
2023-04-09T07:06:30.341Z,101359.72
2023-04-09T07:16:32.295Z,101369.09
2023-04-09T07:26:34.196Z,101364.59
2023-04-09T07:36:36.127Z,101362.03
2023-04-09T07:46:42.686Z,101376.66
2023-04-09T07:56:59.411Z,101362.25
2023-04-09T08:07:35.362Z,101366.31
2023-04-09T08:17:37.528Z,101365.66
2023-04-09T08:27:39.947Z,101365.47
2023-04-09T08:37:43.599Z,101355.97
2023-04-09T08:47:53.414Z,101363.69
2023-04-09T08:57:56.803Z,101361.59
2023-04-09T09:08:24.286Z,101347.16
2023-04-09T09:18:43.320Z,101373.56
2023-04-09T09:29:07.217Z,101375.69
2023-04-09T09:39:17.987Z,101382.31
2023-04-09T09:49:20.012Z,101372.75
2023-04-09T09:59:30.714Z,101374.03
2023-04-09T10:09:48.657Z,101369.25
2023-04-09T10:20:11.980Z,101349.81
2023-04-09T10:30:36.427Z,101348.63
2023-04-09T10:40:56.353Z,101345.84
2023-04-09T10:51:06.461Z,101335.66
2023-04-09T11:01:08.380Z,101341.56
2023-04-09T11:11:11.751Z,101336.22
2023-04-09T11:21:13.810Z,101329.94
2023-04-09T11:31:34.247Z,101326.78
2023-04-09T11:41:37.389Z,101324.56
2023-04-09T11:51:53.824Z,101305.56
2023-04-09T12:01:58.951Z,101309.91
2023-04-09T12:12:02.664Z,101304.56
2023-04-09T12:22:04.578Z,101303.09
2023-04-09T12:32:06.787Z,101291.56
2023-04-09T12:42:17.446Z,101295.75
2023-04-09T12:52:20.760Z,101293.94
2023-04-09T13:02:30.760Z,101296.53
2023-04-09T13:12:32.804Z,101285.72
2023-04-09T13:22:36.483Z,101270.28
2023-04-09T13:32:39.593Z,101279.41
2023-04-09T13:42:41.781Z,101286.59
2023-04-09T13:52:47.717Z,101280.75
2023-04-09T14:02:55.891Z,101279.06
2023-04-09T14:13:02.368Z,101288.47
2023-04-09T14:23:04.469Z,101282.44
2023-04-09T14:33:06.828Z,101287.97
2023-04-09T14:43:11.178Z,101271.13
2023-04-09T14:53:20.144Z,101272.00
2023-04-09T15:03:22.510Z,101261.31
2023-04-09T15:13:27.799Z,101265.72
2023-04-09T15:23:35.979Z,101263.59
2023-04-09T15:33:39.361Z,101253.94
2023-04-09T15:43:41.289Z,101262.81
2023-04-09T15:53:44.282Z,101258.94
2023-04-09T16:03:54.529Z,101267.28
2023-04-09T16:14:02.681Z,101273.75
2023-04-09T16:24:06.701Z,101279.31
2023-04-09T16:34:17.095Z,101274.41
2023-04-09T16:44:19.126Z,101278.91
2023-04-09T16:54:44.156Z,101289.59
2023-04-09T17:04:52.208Z,101300.59
2023-04-09T17:15:01.293Z,101305.06
2023-04-09T17:25:04.200Z,101313.47
2023-04-09T17:35:07.846Z,101321.41
2023-04-09T17:45:22.035Z,101325.91
2023-04-09T17:55:24.300Z,101335.41
2023-04-09T18:05:43.698Z,101340.75
2023-04-09T18:15:45.684Z,101356.25
2023-04-09T18:25:49.876Z,101364.03
2023-04-09T18:36:00.836Z,101377.75
2023-04-09T18:46:02.913Z,101386.47
2023-04-09T18:56:06.095Z,101386.50
2023-04-09T19:06:20.352Z,101376.09
2023-04-09T19:16:22.918Z,101383.13
2023-04-09T19:26:26.925Z,101376.16
2023-04-09T19:36:32.939Z,101376.34
2023-04-09T19:46:41.193Z,101384.13
2023-04-09T19:56:44.205Z,101379.09
2023-04-09T20:06:48.749Z,101389.50
2023-04-09T20:16:52.897Z,101391.44
2023-04-09T20:27:01.949Z,101385.50
2023-04-09T20:37:05.753Z,101399.47
2023-04-09T20:47:07.826Z,101403.78
2023-04-09T20:57:13.225Z,101394.34
2023-04-09T21:07:15.989Z,101389.16
2023-04-09T21:17:19.324Z,101383.16
2023-04-09T21:27:21.457Z,101388.31
2023-04-09T21:37:24.589Z,101391.75
2023-04-09T21:47:27.760Z,101393.41
2023-04-09T21:57:29.985Z,101395.91
2023-04-09T22:07:32.018Z,101392.22
2023-04-09T22:17:34.045Z,101407.38
2023-04-09T22:27:36.661Z,101396.59
2023-04-09T22:37:40.617Z,101405.28
2023-04-09T22:47:42.664Z,101401.59
2023-04-09T22:57:44.695Z,101406.41
2023-04-09T23:07:52.740Z,101402.84
2023-04-09T23:17:55.161Z,101404.38
2023-04-09T23:27:58.091Z,101396.47
2023-04-09T23:38:00.015Z,101402.03
2023-04-09T23:48:03.441Z,101389.81
2023-04-09T23:58:05.644Z,101398.44
